Oslo Carrier 3 — 9V7739 — position and weather

sailwx.info

Track history (hours):
 
Tides and Currents Weather Stations Pressure Air Temp Water Temp Dewpoint Dewpoint Depression Visibility Wind Speed Wind Dir Waves Ship Positions

Oslo Carrier 3

Last reported at 2018-Jun-24 12:13 UTC. Time now 2018-Jun-24 18:55 UTC.
Position N 36°40' W 008°52'.

Length 107 m; draft 5.2 m.

Type: Cargo ship. MMSI: 566839000.

Date/timePositionNaut miles runAvg speedWind from/ knotsBaromVisibWave heightAir tempDewpointWater temp
2018-Jun-24 12:13N 36°40' W 008°52'310.9
2018-Jun-24 11:59N 36°39' W 008°49'37610.2
2018-Jun-22 23:15N 37°31' W 001°02'4 7.6
2018-Jun-22 22:44N 37°34' W 000°58'0 0.0
2018-Jun-22 01:17N 37°34' W 000°58'1 2.9
2018-Jun-22 00:57N 37°33' W 000°59'510.4
2018-Jun-22 00:28N 37°29' W 000°56'612.0
2018-Jun-22 00:00N 37°28' W 000°49'612.2
2018-Jun-21 23:30N 37°27' W 000°41'812.2
2018-Jun-21 22:50N 37°27' W 000°31'412.1
2018-Jun-21 22:30N 37°26' W 000°26'1112.0
2018-Jun-21 21:36N 37°25' W 000°12'111.8
2018-Jun-21 21:30N 37°25' W 000°11'611.5
2018-Jun-21 21:00N 37°25' W 000°04'611.6
2018-Jun-21 20:30N 37°24' E 000°04'611.8
2018-Jun-21 20:00N 37°24' E 000°11'611.9
2018-Jun-21 19:30N 37°23' E 000°18'612.2
2018-Jun-21 19:00N 37°23' E 000°26'612.3
2018-Jun-21 18:30N 37°22' E 000°34'612.2
2018-Jun-21 18:00N 37°21' E 000°41'612.2
2018-Jun-21 17:30N 37°21' E 000°49'612.2
2018-Jun-21 17:00N 37°20' E 000°57'612.1
2018-Jun-21 16:30N 37°20' E 001°04'611.9
2018-Jun-21 16:00N 37°19' E 001°12'611.9
2018-Jun-21 15:30N 37°19' E 001°19'611.9
2018-Jun-21 15:00N 37°18' E 001°27'612.0
2018-Jun-21 14:29N 37°18' E 001°34'612.0
2018-Jun-21 13:59N 37°17' E 001°42'612.1
2018-Jun-21 13:29N 37°17' E 001°50'612.0
2018-Jun-21 12:59N 37°16' E 001°57'  
Track history (hours):
 
Tides and Currents Weather Stations Pressure Air Temp Water Temp Dewpoint Dewpoint Depression Visibility Wind Speed Wind Dir Waves Ship Positions

Oslo Carrier 3

Last reported at 2018-Jun-24 12:13 UTC. Time now 2018-Jun-24 18:55 UTC.
Position N 36°40' W 008°52'.

Length 107 m; draft 5.2 m.

Type: Cargo ship. MMSI: 566839000.

Date/timePositionNaut miles runAvg speedWind from/ knotsBaromVisibWave heightAir tempDewpointWater temp
2018-Jun-24 12:13N 36°40' W 008°52'310.9
2018-Jun-24 11:59N 36°39' W 008°49'37610.2
2018-Jun-22 23:15N 37°31' W 001°02'4 7.6
2018-Jun-22 22:44N 37°34' W 000°58'0 0.0
2018-Jun-22 01:17N 37°34' W 000°58'1 2.9
2018-Jun-22 00:57N 37°33' W 000°59'510.4
2018-Jun-22 00:28N 37°29' W 000°56'612.0
2018-Jun-22 00:00N 37°28' W 000°49'612.2
2018-Jun-21 23:30N 37°27' W 000°41'812.2
2018-Jun-21 22:50N 37°27' W 000°31'412.1
2018-Jun-21 22:30N 37°26' W 000°26'1112.0
2018-Jun-21 21:36N 37°25' W 000°12'111.8
2018-Jun-21 21:30N 37°25' W 000°11'611.5
2018-Jun-21 21:00N 37°25' W 000°04'611.6
2018-Jun-21 20:30N 37°24' E 000°04'611.8
2018-Jun-21 20:00N 37°24' E 000°11'611.9
2018-Jun-21 19:30N 37°23' E 000°18'612.2
2018-Jun-21 19:00N 37°23' E 000°26'612.3
2018-Jun-21 18:30N 37°22' E 000°34'612.2
2018-Jun-21 18:00N 37°21' E 000°41'612.2
2018-Jun-21 17:30N 37°21' E 000°49'612.2
2018-Jun-21 17:00N 37°20' E 000°57'612.1
2018-Jun-21 16:30N 37°20' E 001°04'611.9
2018-Jun-21 16:00N 37°19' E 001°12'611.9
2018-Jun-21 15:30N 37°19' E 001°19'611.9
2018-Jun-21 15:00N 37°18' E 001°27'612.0
2018-Jun-21 14:29N 37°18' E 001°34'612.0
2018-Jun-21 13:59N 37°17' E 001°42'612.1
2018-Jun-21 13:29N 37°17' E 001°50'612.0
2018-Jun-21 12:59N 37°16' E 001°57'  

Dump ship's entire track history